TJSJTKPK

Guest
Details From TJSJ - San Juan - Luis Munoz Marin Intl
To TKPK - St. Kitts/Bradshaw Intl
Flight Number -
Tags generated
Created
Modified
Stats Distance 201 nm / 373 km
Max Altitude 21,100 ft / 6,431 m
Waypoints 3
Social Downloads 2
Likes 0
Share VATSIM

Download

Looking for another format? Having issues loading an existing format? Contact us
Advertisement - Login to hide

Notes

Basic altitude profile: - Ascent Rate: 2500ft/min - Ascent Speed: 250kts - Cruise Altitude: 35000ft - Cruise Speed: 420kts - Descent Rate: 1500ft/min - Descent Speed: 250kts Options: - Use NATs: no - Use PACOTS: no - Use low airways: yes - Use high airways: yes

Route

TJSJ TANZY TKPK

ID Type Via Altitude Latitude Longitude Leg Dist Tot Dist Heading (true) Name
O TJSJ APT - 0 ft / 0 m 18.43878˚ -66.00202˚ - 0 nm - San Juan - Luis Munoz Marin Intl
TANZY FIX - 21,100 ft / 6,431 m 17.66878˚ -64.40247˚ 102 nm 102 nm 117° / 117° -
O TKPK APT - 0 ft / 0 m 17.31119˚ -62.71867˚ 98 nm 201 nm 102° / 103° St. Kitts/Bradshaw Intl

Altitude Profile

Advertisement - Login to hide

Weather


0- 5 10 15 20 25 30 35+ Temperature / ° C

Clouds and Precipitation
Forecast for 2017-12-15 12:00 UTC. Updated an hour ago

Ground ~20,000 ft ~40,000 ft Winds

TJSJ

Details ICAO TJSJ (SJU)
Name San Juan - Luis Munoz Marin Intl
Region USA (Puerto Rico)
Timezone America/Puerto_Rico (UTC-4.0)
Stats Elevation 9 ft / 3 m (AMSL)
Location 18.438777° -66.002018°
Runways 2
Magnetic Variation 13.222° W

METAR

TJSJ 150956Z 00000KT 10SM FEW028 SCT040 24/23 A3005

Decode

TAF

TJSJ 150529Z 1506/1606 VRB03KT P6SM FEW060 FM151300 07015KT P6SM SCT030 FM152300 08005KT P6SM FEW030

Decode

Departure Runways

ID Width Length Bearing (true) Bearing (mag) Surface Threshold Offset Overrun Length
08 200 ft / 61 m 9,781 ft / 2,981 m 66.87° 80.09° Asphalt 0 ft / 0 m 200 ft / 61 m
10 151 ft / 46 m 8,007 ft / 2,440 m 90.14° 103.36° Concrete 0 ft / 0 m 200 ft / 61 m
26 200 ft / 61 m 9,781 ft / 2,981 m 246.88° 260.10° Asphalt 0 ft / 0 m 230 ft / 70 m
28 151 ft / 46 m 8,007 ft / 2,440 m 270.15° 283.37° Concrete 0 ft / 0 m 200 ft / 61 m

TKPK

Details ICAO TKPK (SKB)
Name St. Kitts/Bradshaw Intl
Region Saint Kitts and Nevis
Timezone America/St_Kitts (UTC-4.0)
Stats Elevation 170 ft / 52 m (AMSL)
Location 17.311194° -62.718666°
Runways 1
Magnetic Variation 14.451° W

METAR

TKPK 151000Z 06011KT 9999 FEW018 26/21 Q1017

Decode

TAF

TAF TKPK 150529Z 1506/1606 06010KT P6SM SCT022 FM151400 07015KT P6SM FEW020 SCT035 FM152200 05010KT P6SM FEW020 AMD NOT SKED TIL 151100

Decode

Destination Runways

ID Width Length Bearing (true) Bearing (mag) Surface Threshold Offset Overrun Length
07 148 ft / 45 m 7,620 ft / 2,323 m 56.95° 71.40° Asphalt 200 ft / 61 m 0 ft / 0 m
25 148 ft / 45 m 7,620 ft / 2,323 m 236.95° 251.40° Asphalt 0 ft / 0 m 0 ft / 0 m

Popular Alternatives